sensor_id;sensor_type;location;lat;lon;timestamp;pressure;altitude;pressure_sealevel;temperature;humidity
69127;BME280;56688;50.234;19.292;2023-01-29T00:01:22;99441.53;;;-0.09;72.48
69127;BME280;56688;50.234;19.292;2023-01-29T00:03:50;99438.67;;;-0.08;72.43
69127;BME280;56688;50.234;19.292;2023-01-29T00:06:17;99440.73;;;-0.10;72.30
69127;BME280;56688;50.234;19.292;2023-01-29T00:08:44;99443.31;;;-0.14;72.56
69127;BME280;56688;50.234;19.292;2023-01-29T00:11:11;99443.69;;;-0.18;72.81
69127;BME280;56688;50.234;19.292;2023-01-29T00:13:39;99443.45;;;-0.25;72.72
69127;BME280;56688;50.234;19.292;2023-01-29T00:16:06;99443.83;;;-0.31;72.83
69127;BME280;56688;50.234;19.292;2023-01-29T00:18:36;99453.40;;;-0.30;73.37
69127;BME280;56688;50.234;19.292;2023-01-29T00:21:09;99449.55;;;-0.27;73.52
69127;BME280;56688;50.234;19.292;2023-01-29T00:23:36;99449.60;;;-0.25;73.32
69127;BME280;56688;50.234;19.292;2023-01-29T00:26:03;99453.07;;;-0.25;73.19
69127;BME280;56688;50.234;19.292;2023-01-29T00:28:30;99450.29;;;-0.25;73.44
69127;BME280;56688;50.234;19.292;2023-01-29T00:30:57;99457.02;;;-0.24;73.72
69127;BME280;56688;50.234;19.292;2023-01-29T00:33:24;99458.55;;;-0.28;73.57
69127;BME280;56688;50.234;19.292;2023-01-29T00:35:51;99457.95;;;-0.33;73.67
69127;BME280;56688;50.234;19.292;2023-01-29T00:38:18;99457.56;;;-0.38;73.11
69127;BME280;56688;50.234;19.292;2023-01-29T00:40:45;99457.61;;;-0.41;73.14
69127;BME280;56688;50.234;19.292;2023-01-29T00:43:27;99462.58;;;-0.45;72.79
69127;BME280;56688;50.234;19.292;2023-01-29T00:46:09;99464.92;;;-0.46;72.71
69127;BME280;56688;50.234;19.292;2023-01-29T00:48:36;99472.91;;;-0.48;72.27
69127;BME280;56688;50.234;19.292;2023-01-29T00:51:03;99472.95;;;-0.49;72.51
69127;BME280;56688;50.234;19.292;2023-01-29T00:53:33;99471.80;;;-0.50;71.99
69127;BME280;56688;50.234;19.292;2023-01-29T00:55:59;99470.52;;;-0.52;71.75
69127;BME280;56688;50.234;19.292;2023-01-29T00:58:26;99471.18;;;-0.54;71.52
69127;BME280;56688;50.234;19.292;2023-01-29T01:01:01;99476.85;;;-0.58;71.51
69127;BME280;56688;50.234;19.292;2023-01-29T01:03:28;99479.44;;;-0.63;71.39
69127;BME280;56688;50.234;19.292;2023-01-29T01:06:10;99472.95;;;-0.69;71.08
69127;BME280;56688;50.234;19.292;2023-01-29T01:08:37;99471.89;;;-0.71;70.50
69127;BME280;56688;50.234;19.292;2023-01-29T01:11:20;99473.34;;;-0.72;70.60
69127;BME280;56688;50.234;19.292;2023-01-29T01:13:47;99475.55;;;-0.71;70.24
69127;BME280;56688;50.234;19.292;2023-01-29T01:16:16;99480.13;;;-0.72;70.03
69127;BME280;56688;50.234;19.292;2023-01-29T01:18:44;99485.52;;;-0.71;70.55
69127;BME280;56688;50.234;19.292;2023-01-29T01:21:11;99484.21;;;-0.73;70.06
69127;BME280;56688;50.234;19.292;2023-01-29T01:23:38;99482.97;;;-0.75;70.13
69127;BME280;56688;50.234;19.292;2023-01-29T01:26:08;99480.89;;;-0.75;70.39
69127;BME280;56688;50.234;19.292;2023-01-29T01:28:37;99478.10;;;-0.75;70.53
69127;BME280;56688;50.234;19.292;2023-01-29T01:31:12;99474.31;;;-0.76;70.64
69127;BME280;56688;50.234;19.292;2023-01-29T01:33:40;99471.91;;;-0.77;70.79
69127;BME280;56688;50.234;19.292;2023-01-29T01:36:07;99469.60;;;-0.74;71.22
69127;BME280;56688;50.234;19.292;2023-01-29T01:38:37;99475.80;;;-0.69;71.72
69127;BME280;56688;50.234;19.292;2023-01-29T01:41:11;99469.05;;;-0.68;71.59
69127;BME280;56688;50.234;19.292;2023-01-29T01:43:56;99461.83;;;-0.70;71.28
69127;BME280;56688;50.234;19.292;2023-01-29T01:46:25;99465.90;;;-0.74;71.79
69127;BME280;56688;50.234;19.292;2023-01-29T01:49:00;99468.78;;;-0.72;71.99
69127;BME280;56688;50.234;19.292;2023-01-29T01:51:31;99461.59;;;-0.72;72.24
69127;BME280;56688;50.234;19.292;2023-01-29T01:54:05;99456.86;;;-0.72;72.31
69127;BME280;56688;50.234;19.292;2023-01-29T01:56:40;99458.38;;;-0.71;72.37
69127;BME280;56688;50.234;19.292;2023-01-29T01:59:11;99457.79;;;-0.70;72.70
69127;BME280;56688;50.234;19.292;2023-01-29T02:01:43;99447.59;;;-0.69;72.62
69127;BME280;56688;50.234;19.292;2023-01-29T02:04:16;99448.05;;;-0.65;72.93
69127;BME280;56688;50.234;19.292;2023-01-29T02:07:01;99437.51;;;-0.61;72.88
69127;BME280;56688;50.234;19.292;2023-01-29T02:09:51;99442.77;;;-0.59;72.29
69127;BME280;56688;50.234;19.292;2023-01-29T02:12:20;99434.71;;;-0.62;72.30
69127;BME280;56688;50.234;19.292;2023-01-29T02:14:50;99424.30;;;-0.66;72.09
69127;BME280;56688;50.234;19.292;2023-01-29T02:17:18;99425.73;;;-0.72;71.40
69127;BME280;56688;50.234;19.292;2023-01-29T02:19:49;99432.16;;;-0.79;70.67
69127;BME280;56688;50.234;19.292;2023-01-29T02:30:17;99431.66;;;-0.94;70.77
69127;BME280;56688;50.234;19.292;2023-01-29T02:33:08;99431.01;;;-0.98;71.18
69127;BME280;56688;50.234;19.292;2023-01-29T02:35:45;99423.65;;;-0.98;71.00
69127;BME280;56688;50.234;19.292;2023-01-29T02:43:51;99420.98;;;-1.20;70.78
69127;BME280;56688;50.234;19.292;2023-01-29T02:51:43;99423.76;;;-1.28;70.51
69127;BME280;56688;50.234;19.292;2023-01-29T02:54:32;99428.68;;;-1.32;70.76
69127;BME280;56688;50.234;19.292;2023-01-29T02:57:15;99429.47;;;-1.33;70.68
69127;BME280;56688;50.234;19.292;2023-01-29T02:59:49;99439.48;;;-1.34;70.77
69127;BME280;56688;50.234;19.292;2023-01-29T03:02:31;99445.77;;;-1.34;70.51
69127;BME280;56688;50.234;19.292;2023-01-29T03:05:02;99450.92;;;-1.39;70.34
69127;BME280;56688;50.234;19.292;2023-01-29T03:07:35;99458.23;;;-1.44;70.36
69127;BME280;56688;50.234;19.292;2023-01-29T03:10:34;99453.44;;;-1.46;70.55
69127;BME280;56688;50.234;19.292;2023-01-29T03:13:08;99452.69;;;-1.48;70.28
69127;BME280;56688;50.234;19.292;2023-01-29T03:15:46;99457.17;;;-1.47;70.46
69127;BME280;56688;50.234;19.292;2023-01-29T03:18:32;99460.55;;;-1.42;70.34
69127;BME280;56688;50.234;19.292;2023-01-29T03:21:03;99461.30;;;-1.37;70.00
69127;BME280;56688;50.234;19.292;2023-01-29T03:23:54;99463.19;;;-1.33;69.77
69127;BME280;56688;50.234;19.292;2023-01-29T03:26:39;99466.45;;;-1.32;69.43
69127;BME280;56688;50.234;19.292;2023-01-29T03:29:30;99472.34;;;-1.34;69.36
69127;BME280;56688;50.234;19.292;2023-01-29T03:32:15;99472.08;;;-1.39;69.26
69127;BME280;56688;50.234;19.292;2023-01-29T03:34:48;99467.30;;;-1.41;69.52
69127;BME280;56688;50.234;19.292;2023-01-29T03:37:28;99470.94;;;-1.41;69.82
69127;BME280;56688;50.234;19.292;2023-01-29T03:39:55;99471.86;;;-1.41;69.88
69127;BME280;56688;50.234;19.292;2023-01-29T03:42:27;99471.80;;;-1.43;69.77
69127;BME280;56688;50.234;19.292;2023-01-29T03:47:58;99465.70;;;-1.47;68.73
69127;BME280;56688;50.234;19.292;2023-01-29T03:53:29;99463.49;;;-1.50;68.48
69127;BME280;56688;50.234;19.292;2023-01-29T03:56:01;99465.06;;;-1.53;68.36
69127;BME280;56688;50.234;19.292;2023-01-29T03:58:41;99464.24;;;-1.54;68.41
69127;BME280;56688;50.234;19.292;2023-01-29T04:03:42;99447.70;;;-1.70;66.99
69127;BME280;56688;50.234;19.292;2023-01-29T04:06:17;99438.85;;;-1.78;67.15
69127;BME280;56688;50.234;19.292;2023-01-29T04:09:00;99436.72;;;-1.86;67.01
69127;BME280;56688;50.234;19.292;2023-01-29T04:11:30;99447.02;;;-1.89;67.39
69127;BME280;56688;50.234;19.292;2023-01-29T04:13:59;99453.26;;;-1.94;67.47
69127;BME280;56688;50.234;19.292;2023-01-29T04:16:31;99453.37;;;-1.96;67.49
69127;BME280;56688;50.234;19.292;2023-01-29T04:19:21;99450.42;;;-1.97;67.61
69127;BME280;56688;50.234;19.292;2023-01-29T04:21:52;99444.08;;;-1.96;67.48
69127;BME280;56688;50.234;19.292;2023-01-29T04:24:26;99442.36;;;-1.90;67.35
69127;BME280;56688;50.234;19.292;2023-01-29T04:26:59;99427.71;;;-1.87;66.88
69127;BME280;56688;50.234;19.292;2023-01-29T04:29:44;99416.28;;;-1.86;66.86
69127;BME280;56688;50.234;19.292;2023-01-29T04:32:27;99411.36;;;-1.85;66.95
69127;BME280;56688;50.234;19.292;2023-01-29T04:35:00;99409.17;;;-1.90;66.60
69127;BME280;56688;50.234;19.292;2023-01-29T04:37:40;99406.36;;;-1.92;65.86
69127;BME280;56688;50.234;19.292;2023-01-29T04:42:53;99395.59;;;-2.03;64.96
69127;BME280;56688;50.234;19.292;2023-01-29T04:45:33;99392.55;;;-2.08;65.10
69127;BME280;56688;50.234;19.292;2023-01-29T04:53:47;99390.52;;;-2.21;64.52
69127;BME280;56688;50.234;19.292;2023-01-29T04:56:24;99387.15;;;-2.26;64.48
69127;BME280;56688;50.234;19.292;2023-01-29T04:58:57;99379.77;;;-2.32;64.41
69127;BME280;56688;50.234;19.292;2023-01-29T05:01:26;99386.63;;;-2.35;64.51
69127;BME280;56688;50.234;19.292;2023-01-29T05:03:56;99394.18;;;-2.36;64.50
69127;BME280;56688;50.234;19.292;2023-01-29T05:06:24;99393.55;;;-2.35;64.23
69127;BME280;56688;50.234;19.292;2023-01-29T05:08:52;99390.98;;;-2.35;64.14
69127;BME280;56688;50.234;19.292;2023-01-29T05:11:19;99393.85;;;-2.34;63.97
69127;BME280;56688;50.234;19.292;2023-01-29T05:13:47;99396.02;;;-2.35;63.93
69127;BME280;56688;50.234;19.292;2023-01-29T05:16:20;99394.06;;;-2.34;63.99
69127;BME280;56688;50.234;19.292;2023-01-29T05:18:49;99397.81;;;-2.36;63.88
69127;BME280;56688;50.234;19.292;2023-01-29T05:21:17;99402.11;;;-2.38;64.10
69127;BME280;56688;50.234;19.292;2023-01-29T05:23:45;99407.48;;;-2.37;64.22
69127;BME280;56688;50.234;19.292;2023-01-29T05:26:23;99410.65;;;-2.38;63.95
69127;BME280;56688;50.234;19.292;2023-01-29T05:29:06;99417.69;;;-2.39;63.73
69127;BME280;56688;50.234;19.292;2023-01-29T05:31:32;99425.64;;;-2.40;63.89
69127;BME280;56688;50.234;19.292;2023-01-29T05:33:59;99428.39;;;-2.40;64.28
69127;BME280;56688;50.234;19.292;2023-01-29T05:36:26;99423.79;;;-2.42;64.36
69127;BME280;56688;50.234;19.292;2023-01-29T05:38:53;99420.02;;;-2.46;64.05
69127;BME280;56688;50.234;19.292;2023-01-29T05:41:20;99416.02;;;-2.49;63.87
69127;BME280;56688;50.234;19.292;2023-01-29T05:43:46;99414.48;;;-2.50;64.08
69127;BME280;56688;50.234;19.292;2023-01-29T05:46:13;99408.70;;;-2.49;64.52
69127;BME280;56688;50.234;19.292;2023-01-29T05:48:40;99405.70;;;-2.49;64.40
69127;BME280;56688;50.234;19.292;2023-01-29T05:51:07;99403.60;;;-2.49;64.57
69127;BME280;56688;50.234;19.292;2023-01-29T05:53:33;99407.31;;;-2.50;64.71
69127;BME280;56688;50.234;19.292;2023-01-29T05:56:02;99412.67;;;-2.56;64.66
69127;BME280;56688;50.234;19.292;2023-01-29T05:58:30;99418.31;;;-2.60;64.46
69127;BME280;56688;50.234;19.292;2023-01-29T06:00:57;99418.44;;;-2.62;64.74
69127;BME280;56688;50.234;19.292;2023-01-29T06:03:24;99418.31;;;-2.63;65.40
69127;BME280;56688;50.234;19.292;2023-01-29T06:05:51;99420.88;;;-2.62;66.27
69127;BME280;56688;50.234;19.292;2023-01-29T06:08:18;99419.11;;;-2.65;66.85
69127;BME280;56688;50.234;19.292;2023-01-29T06:10:44;99419.86;;;-2.69;67.36
69127;BME280;56688;50.234;19.292;2023-01-29T06:13:11;99419.06;;;-2.73;67.66
69127;BME280;56688;50.234;19.292;2023-01-29T06:15:39;99424.45;;;-2.76;67.80
69127;BME280;56688;50.234;19.292;2023-01-29T06:18:06;99419.09;;;-2.81;67.92
69127;BME280;56688;50.234;19.292;2023-01-29T06:20:33;99421.89;;;-2.84;67.99
69127;BME280;56688;50.234;19.292;2023-01-29T06:22:59;99428.95;;;-2.82;67.74
69127;BME280;56688;50.234;19.292;2023-01-29T06:25:26;99431.18;;;-2.82;67.90
69127;BME280;56688;50.234;19.292;2023-01-29T06:27:53;99433.23;;;-2.81;68.05
69127;BME280;56688;50.234;19.292;2023-01-29T06:30:23;99437.92;;;-2.84;68.50
69127;BME280;56688;50.234;19.292;2023-01-29T06:32:49;99438.91;;;-2.83;68.52
69127;BME280;56688;50.234;19.292;2023-01-29T06:35:16;99436.64;;;-2.80;68.55
69127;BME280;56688;50.234;19.292;2023-01-29T06:37:43;99442.16;;;-2.78;68.23
69127;BME280;56688;50.234;19.292;2023-01-29T06:40:10;99438.42;;;-2.77;68.45
69127;BME280;56688;50.234;19.292;2023-01-29T06:42:37;99435.85;;;-2.81;68.59
69127;BME280;56688;50.234;19.292;2023-01-29T06:45:07;99429.77;;;-2.85;68.50
69127;BME280;56688;50.234;19.292;2023-01-29T06:47:34;99424.91;;;-2.85;68.80
69127;BME280;56688;50.234;19.292;2023-01-29T06:50:02;99423.69;;;-2.85;69.06
69127;BME280;56688;50.234;19.292;2023-01-29T06:52:29;99421.78;;;-2.82;68.98
69127;BME280;56688;50.234;19.292;2023-01-29T06:54:56;99421.34;;;-2.77;68.76
69127;BME280;56688;50.234;19.292;2023-01-29T06:57:22;99420.20;;;-2.75;68.84
69127;BME280;56688;50.234;19.292;2023-01-29T06:59:49;99423.06;;;-2.73;68.86
69127;BME280;56688;50.234;19.292;2023-01-29T07:02:16;99429.13;;;-2.72;69.03
69127;BME280;56688;50.234;19.292;2023-01-29T07:04:43;99427.77;;;-2.67;68.98
69127;BME280;56688;50.234;19.292;2023-01-29T07:07:10;99426.48;;;-2.63;68.63
69127;BME280;56688;50.234;19.292;2023-01-29T07:09:39;99426.76;;;-2.58;68.67
69127;BME280;56688;50.234;19.292;2023-01-29T07:12:08;99425.53;;;-2.55;68.69
69127;BME280;56688;50.234;19.292;2023-01-29T07:14:35;99432.60;;;-2.53;68.38
69127;BME280;56688;50.234;19.292;2023-01-29T07:17:02;99436.25;;;-2.53;68.08
69127;BME280;56688;50.234;19.292;2023-01-29T07:19:28;99435.29;;;-2.51;67.83
69127;BME280;56688;50.234;19.292;2023-01-29T07:21:55;99431.58;;;-2.50;67.58
69127;BME280;56688;50.234;19.292;2023-01-29T07:24:22;99430.34;;;-2.47;67.78
69127;BME280;56688;50.234;19.292;2023-01-29T07:26:50;99437.19;;;-2.41;67.85
69127;BME280;56688;50.234;19.292;2023-01-29T07:29:17;99440.13;;;-2.34;67.29
69127;BME280;56688;50.234;19.292;2023-01-29T07:31:43;99445.29;;;-2.24;67.28
69127;BME280;56688;50.234;19.292;2023-01-29T07:34:10;99441.46;;;-2.14;66.81
69127;BME280;56688;50.234;19.292;2023-01-29T07:36:37;99439.83;;;-2.07;66.66
69127;BME280;56688;50.234;19.292;2023-01-29T07:39:04;99440.77;;;-2.02;66.12
69127;BME280;56688;50.234;19.292;2023-01-29T07:41:31;99443.42;;;-2.00;66.06
69127;BME280;56688;50.234;19.292;2023-01-29T07:43:58;99447.14;;;-1.94;66.26
69127;BME280;56688;50.234;19.292;2023-01-29T07:46:25;99443.25;;;-1.93;66.16
69127;BME280;56688;50.234;19.292;2023-01-29T07:48:52;99450.66;;;-1.89;66.03
69127;BME280;56688;50.234;19.292;2023-01-29T07:51:18;99447.31;;;-1.85;66.21
69127;BME280;56688;50.234;19.292;2023-01-29T07:53:46;99444.52;;;-1.79;66.34
69127;BME280;56688;50.234;19.292;2023-01-29T07:56:13;99441.73;;;-1.76;66.41
69127;BME280;56688;50.234;19.292;2023-01-29T07:58:40;99447.54;;;-1.77;66.11
69127;BME280;56688;50.234;19.292;2023-01-29T08:01:07;99452.33;;;-1.78;66.33
69127;BME280;56688;50.234;19.292;2023-01-29T08:03:34;99454.80;;;-1.79;66.48
69127;BME280;56688;50.234;19.292;2023-01-29T08:06:02;99464.45;;;-1.79;66.56
69127;BME280;56688;50.234;19.292;2023-01-29T08:08:29;99473.29;;;-1.78;66.97
69127;BME280;56688;50.234;19.292;2023-01-29T08:10:59;99478.36;;;-1.79;67.61
69127;BME280;56688;50.234;19.292;2023-01-29T08:13:27;99481.59;;;-1.80;68.16
69127;BME280;56688;50.234;19.292;2023-01-29T08:15:58;99483.98;;;-1.81;68.73
69127;BME280;56688;50.234;19.292;2023-01-29T08:18:25;99488.30;;;-1.84;69.56
69127;BME280;56688;50.234;19.292;2023-01-29T08:20:52;99491.09;;;-1.84;70.08
69127;BME280;56688;50.234;19.292;2023-01-29T08:23:18;99485.44;;;-1.86;70.34
69127;BME280;56688;50.234;19.292;2023-01-29T08:25:45;99488.48;;;-1.84;70.66
69127;BME280;56688;50.234;19.292;2023-01-29T08:28:12;99487.45;;;-1.85;70.94
69127;BME280;56688;50.234;19.292;2023-01-29T08:30:39;99485.30;;;-1.83;71.38
69127;BME280;56688;50.234;19.292;2023-01-29T08:33:06;99486.61;;;-1.79;71.72
69127;BME280;56688;50.234;19.292;2023-01-29T08:35:33;99483.55;;;-1.71;71.85
69127;BME280;56688;50.234;19.292;2023-01-29T08:38:01;99480.33;;;-1.63;71.66
69127;BME280;56688;50.234;19.292;2023-01-29T08:40:31;99479.51;;;-1.58;71.44
69127;BME280;56688;50.234;19.292;2023-01-29T08:43:01;99475.98;;;-1.52;71.42
69127;BME280;56688;50.234;19.292;2023-01-29T08:45:33;99476.25;;;-1.48;71.39
69127;BME280;56688;50.234;19.292;2023-01-29T08:48:00;99479.37;;;-1.44;71.27
69127;BME280;56688;50.234;19.292;2023-01-29T08:50:27;99488.77;;;-1.41;71.19
69127;BME280;56688;50.234;19.292;2023-01-29T08:52:57;99492.03;;;-1.40;71.17
69127;BME280;56688;50.234;19.292;2023-01-29T08:55:25;99489.39;;;-1.36;71.21
69127;BME280;56688;50.234;19.292;2023-01-29T08:57:52;99489.64;;;-1.34;71.15
69127;BME280;56688;50.234;19.292;2023-01-29T09:00:19;99483.70;;;-1.31;70.88
69127;BME280;56688;50.234;19.292;2023-01-29T09:02:46;99484.95;;;-1.29;70.81
69127;BME280;56688;50.234;19.292;2023-01-29T09:05:13;99486.66;;;-1.25;70.31
69127;BME280;56688;50.234;19.292;2023-01-29T09:07:41;99489.64;;;-1.28;69.20
69127;BME280;56688;50.234;19.292;2023-01-29T09:10:09;99481.52;;;-1.33;68.40
69127;BME280;56688;50.234;19.292;2023-01-29T09:12:37;99472.78;;;-1.36;67.86
69127;BME280;56688;50.234;19.292;2023-01-29T09:15:04;99472.05;;;-1.42;67.85
69127;BME280;56688;50.234;19.292;2023-01-29T09:17:31;99469.09;;;-1.45;67.45
69127;BME280;56688;50.234;19.292;2023-01-29T09:19:58;99464.87;;;-1.47;67.12
69127;BME280;56688;50.234;19.292;2023-01-29T09:22:25;99456.98;;;-1.47;67.16
69127;BME280;56688;50.234;19.292;2023-01-29T09:24:53;99452.88;;;-1.45;67.13
69127;BME280;56688;50.234;19.292;2023-01-29T09:27:20;99450.95;;;-1.45;66.79
69127;BME280;56688;50.234;19.292;2023-01-29T09:29:47;99450.16;;;-1.43;66.75
69127;BME280;56688;50.234;19.292;2023-01-29T09:32:14;99448.80;;;-1.44;67.05
69127;BME280;56688;50.234;19.292;2023-01-29T09:34:48;99451.83;;;-1.45;67.31
69127;BME280;56688;50.234;19.292;2023-01-29T09:37:15;99457.48;;;-1.46;67.42
69127;BME280;56688;50.234;19.292;2023-01-29T09:39:44;99451.81;;;-1.42;67.92
69127;BME280;56688;50.234;19.292;2023-01-29T09:44:57;99440.49;;;-1.11;66.70
69127;BME280;56688;50.234;19.292;2023-01-29T09:47:28;99447.73;;;-0.94;65.84
69127;BME280;56688;50.234;19.292;2023-01-29T09:52:30;99447.21;;;-0.68;63.80
69127;BME280;56688;50.234;19.292;2023-01-29T10:00:05;99441.80;;;-0.55;62.60
69127;BME280;56688;50.234;19.292;2023-01-29T10:02:39;99432.44;;;-0.62;62.19
69127;BME280;56688;50.234;19.292;2023-01-29T10:08:12;99426.20;;;-0.79;61.99
69127;BME280;56688;50.234;19.292;2023-01-29T10:10:48;99422.14;;;-0.84;62.31
69127;BME280;56688;50.234;19.292;2023-01-29T10:23:59;99386.74;;;-0.75;61.46
69127;BME280;56688;50.234;19.292;2023-01-29T10:26:30;99386.10;;;-0.84;62.07
69127;BME280;56688;50.234;19.292;2023-01-29T10:29:00;99384.35;;;-0.95;62.09
69127;BME280;56688;50.234;19.292;2023-01-29T10:31:30;99385.65;;;-1.03;62.52
69127;BME280;56688;50.234;19.292;2023-01-29T10:34:03;99383.13;;;-1.04;62.77
69127;BME280;56688;50.234;19.292;2023-01-29T10:36:45;99378.95;;;-1.04;62.66
69127;BME280;56688;50.234;19.292;2023-01-29T10:39:15;99369.80;;;-1.04;63.17
69127;BME280;56688;50.234;19.292;2023-01-29T11:00:36;99305.83;;;-0.65;60.01
69127;BME280;56688;50.234;19.292;2023-01-29T11:03:23;99305.14;;;-0.63;59.14
69127;BME280;56688;50.234;19.292;2023-01-29T11:11:51;99289.63;;;-0.64;58.22
69127;BME280;56688;50.234;19.292;2023-01-29T11:14:24;99286.55;;;-0.60;58.80
69127;BME280;56688;50.234;19.292;2023-01-29T11:16:52;99284.08;;;-0.51;58.54
69127;BME280;56688;50.234;19.292;2023-01-29T11:19:36;99281.34;;;-0.49;58.56
69127;BME280;56688;50.234;19.292;2023-01-29T11:22:03;99268.15;;;-0.43;58.48
69127;BME280;56688;50.234;19.292;2023-01-29T11:24:30;99265.19;;;-0.35;58.84
69127;BME280;56688;50.234;19.292;2023-01-29T11:26:58;99256.28;;;-0.22;58.16
69127;BME280;56688;50.234;19.292;2023-01-29T11:29:37;99245.45;;;-0.10;57.74
69127;BME280;56688;50.234;19.292;2023-01-29T11:32:07;99246.66;;;0.01;57.63
69127;BME280;56688;50.234;19.292;2023-01-29T11:34:57;99241.40;;;0.07;57.23
69127;BME280;56688;50.234;19.292;2023-01-29T11:39:58;99242.72;;;0.08;57.16
69127;BME280;56688;50.234;19.292;2023-01-29T11:42:29;99243.71;;;0.47;56.95
69127;BME280;56688;50.234;19.292;2023-01-29T11:44:57;99242.02;;;0.81;55.57
69127;BME280;56688;50.234;19.292;2023-01-29T11:47:27;99237.98;;;0.86;55.10
69127;BME280;56688;50.234;19.292;2023-01-29T11:49:56;99235.69;;;0.98;54.21
69127;BME280;56688;50.234;19.292;2023-01-29T11:52:39;99235.32;;;1.13;53.97
69127;BME280;56688;50.234;19.292;2023-01-29T11:57:43;99233.48;;;1.41;52.47
69127;BME280;56688;50.234;19.292;2023-01-29T12:00:22;99234.03;;;1.59;52.73
69127;BME280;56688;50.234;19.292;2023-01-29T12:02:55;99227.22;;;1.61;52.24
69127;BME280;56688;50.234;19.292;2023-01-29T12:05:25;99230.16;;;1.50;52.71
69127;BME280;56688;50.234;19.292;2023-01-29T12:07:54;99239.89;;;1.29;52.54
69127;BME280;56688;50.234;19.292;2023-01-29T12:10:38;99242.08;;;1.00;52.63
69127;BME280;56688;50.234;19.292;2023-01-29T12:15:37;99238.52;;;0.66;55.05
69127;BME280;56688;50.234;19.292;2023-01-29T12:20:58;99244.06;;;0.47;55.18
69127;BME280;56688;50.234;19.292;2023-01-29T12:26:20;99238.46;;;0.49;55.31
69127;BME280;56688;50.234;19.292;2023-01-29T12:31:51;99232.02;;;0.43;55.24
69127;BME280;56688;50.234;19.292;2023-01-29T12:39:50;99222.72;;;0.28;56.46
69127;BME280;56688;50.234;19.292;2023-01-29T12:42:20;99216.08;;;0.18;56.46
69127;BME280;56688;50.234;19.292;2023-01-29T12:44:52;99217.27;;;0.09;56.56
69127;BME280;56688;50.234;19.292;2023-01-29T12:47:27;99208.77;;;0.05;56.47
69127;BME280;56688;50.234;19.292;2023-01-29T12:50:02;99203.23;;;0.06;56.87
69127;BME280;56688;50.234;19.292;2023-01-29T12:52:38;99200.99;;;0.11;57.16
69127;BME280;56688;50.234;19.292;2023-01-29T12:55:23;99204.42;;;0.12;57.02
69127;BME280;56688;50.234;19.292;2023-01-29T12:57:56;99207.77;;;0.12;57.02
69127;BME280;56688;50.234;19.292;2023-01-29T13:00:28;99205.67;;;0.09;57.15
69127;BME280;56688;50.234;19.292;2023-01-29T13:03:03;99206.56;;;0.04;57.67
69127;BME280;56688;50.234;19.292;2023-01-29T13:05:45;99199.81;;;0.08;57.98
69127;BME280;56688;50.234;19.292;2023-01-29T13:08:35;99205.13;;;0.30;57.76
69127;BME280;56688;50.234;19.292;2023-01-29T13:11:14;99192.81;;;0.63;57.43
69127;BME280;56688;50.234;19.292;2023-01-29T13:13:53;99187.73;;;0.89;56.14
69127;BME280;56688;50.234;19.292;2023-01-29T13:16:29;99188.58;;;1.06;55.00
69127;BME280;56688;50.234;19.292;2023-01-29T13:19:03;99188.46;;;1.13;54.46
69127;BME280;56688;50.234;19.292;2023-01-29T13:21:41;99187.23;;;1.18;53.71
69127;BME280;56688;50.234;19.292;2023-01-29T13:24:13;99183.27;;;1.36;53.56
69127;BME280;56688;50.234;19.292;2023-01-29T13:26:46;99184.79;;;1.70;52.70
69127;BME280;56688;50.234;19.292;2023-01-29T13:29:29;99178.14;;;1.90;51.80
69127;BME280;56688;50.234;19.292;2023-01-29T13:31:58;99176.34;;;1.95;51.59
69127;BME280;56688;50.234;19.292;2023-01-29T13:34:32;99175.60;;;1.91;51.46
69127;BME280;56688;50.234;19.292;2023-01-29T13:37:11;99169.19;;;1.72;51.87
69127;BME280;56688;50.234;19.292;2023-01-29T13:39:49;99168.36;;;1.50;52.13
69127;BME280;56688;50.234;19.292;2023-01-29T13:42:20;99167.09;;;1.34;53.08
69127;BME280;56688;50.234;19.292;2023-01-29T13:44:49;99165.61;;;1.23;53.17
69127;BME280;56688;50.234;19.292;2023-01-29T13:49:56;99163.52;;;1.14;52.94
69127;BME280;56688;50.234;19.292;2023-01-29T13:55:29;99162.46;;;0.94;53.91
69127;BME280;56688;50.234;19.292;2023-01-29T13:57:59;99158.02;;;0.88;53.87
69127;BME280;56688;50.234;19.292;2023-01-29T14:10:31;99143.29;;;0.27;55.32
69127;BME280;56688;50.234;19.292;2023-01-29T14:23:44;99137.59;;;0.06;55.73
69127;BME280;56688;50.234;19.292;2023-01-29T14:31:52;99135.11;;;-0.12;57.22
69127;BME280;56688;50.234;19.292;2023-01-29T14:34:35;99133.42;;;-0.17;57.23
69127;BME280;56688;50.234;19.292;2023-01-29T14:39:49;99135.96;;;-0.29;57.39
69127;BME280;56688;50.234;19.292;2023-01-29T14:47:50;99133.80;;;-0.54;58.00
69127;BME280;56688;50.234;19.292;2023-01-29T14:53:02;99132.67;;;-0.63;59.15
69127;BME280;56688;50.234;19.292;2023-01-29T14:57:58;99135.14;;;-0.77;59.19
69127;BME280;56688;50.234;19.292;2023-01-29T15:00:29;99134.45;;;-0.82;59.85
69127;BME280;56688;50.234;19.292;2023-01-29T15:02:57;99137.07;;;-0.88;59.89
69127;BME280;56688;50.234;19.292;2023-01-29T15:05:30;99129.73;;;-0.93;60.13
69127;BME280;56688;50.234;19.292;2023-01-29T15:08:05;99123.10;;;-0.98;60.32
69127;BME280;56688;50.234;19.292;2023-01-29T15:10:42;99124.27;;;-1.03;60.48
69127;BME280;56688;50.234;19.292;2023-01-29T15:13:23;99130.03;;;-1.05;60.30
69127;BME280;56688;50.234;19.292;2023-01-29T15:16:02;99133.74;;;-1.06;60.58
69127;BME280;56688;50.234;19.292;2023-01-29T15:18:35;99136.05;;;-1.06;60.79
69127;BME280;56688;50.234;19.292;2023-01-29T15:21:17;99132.54;;;-1.09;60.80
69127;BME280;56688;50.234;19.292;2023-01-29T15:24:04;99133.95;;;-1.15;60.59
69127;BME280;56688;50.234;19.292;2023-01-29T15:26:32;99130.15;;;-1.21;60.83
69127;BME280;56688;50.234;19.292;2023-01-29T15:29:02;99129.54;;;-1.25;61.28
69127;BME280;56688;50.234;19.292;2023-01-29T15:31:31;99133.13;;;-1.29;61.34
69127;BME280;56688;50.234;19.292;2023-01-29T15:34:04;99129.02;;;-1.35;61.44
69127;BME280;56688;50.234;19.292;2023-01-29T15:36:32;99123.89;;;-1.40;61.97
69127;BME280;56688;50.234;19.292;2023-01-29T15:41:44;99117.37;;;-1.50;62.52
69127;BME280;56688;50.234;19.292;2023-01-29T15:44:14;99124.92;;;-1.54;62.87
69127;BME280;56688;50.234;19.292;2023-01-29T15:46:46;99126.69;;;-1.59;63.05
69127;BME280;56688;50.234;19.292;2023-01-29T15:49:28;99123.23;;;-1.65;63.24